Time;durP1;ratioP1;P1;durP2;ratioP2;P2;SDS_P1;SDS_P2;PMS_P1;PMS_P2;Temp;Humidity;BMP_temperature;BMP_pressure;BME280_temperature;BME280_humidity;BME280_pressure;Samples;Min_cycle;Max_cycle;Signal;HPM_P1;HPM_P2
2022/07/02 00:02:19;;;;;;;0.60;0.60;;;14.10;99.90;;;;;;4975075;28;20477;-79
2022/07/02 00:04:48;;;;;;;0.50;0.40;;;14.10;99.90;;;;;;4975035;28;20481;-79
2022/07/02 00:07:15;;;;;;;0.80;0.50;;;14.10;99.90;;;;;;4974952;28;20492;-79
2022/07/02 00:09:43;;;;;;;0.40;0.40;;;14.10;99.90;;;;;;4974738;28;20994;-79
2022/07/02 00:12:11;;;;;;;0.67;0.40;;;14.00;99.90;;;;;;4974696;28;20434;-79
2022/07/02 00:14:38;;;;;;;0.40;0.40;;;14.00;99.90;;;;;;4974819;28;20485;-79
2022/07/02 00:17:07;;;;;;;0.50;0.50;;;14.00;99.90;;;;;;4974827;28;20832;-80
2022/07/02 00:19:36;;;;;;;0.40;0.40;;;14.00;99.90;;;;;;4974852;28;20860;-79
2022/07/02 00:22:03;;;;;;;0.43;0.43;;;14.00;99.90;;;;;;4974514;28;20796;-79
2022/07/02 00:24:30;;;;;;;0.60;0.60;;;14.00;99.90;;;;;;4974777;28;20445;-80
2022/07/02 00:26:58;;;;;;;0.83;0.40;;;13.90;99.90;;;;;;4974416;28;20469;-79
2022/07/02 00:29:34;;;;;;;0.40;0.40;;;13.90;99.90;;;;;;4974422;28;20966;-79
2022/07/02 00:32:00;;;;;;;2.30;1.20;;;13.90;99.90;;;;;;4974761;28;20437;-79
2022/07/02 00:34:31;;;;;;;0.40;0.40;;;13.90;99.90;;;;;;4974604;28;20492;-79
2022/07/02 00:36:58;;;;;;;0.40;0.40;;;13.90;99.90;;;;;;4974649;28;20473;-79
2022/07/02 00:39:24;;;;;;;1.43;0.60;;;13.80;99.90;;;;;;4974632;28;20814;-79
2022/07/02 00:41:52;;;;;;;0.40;0.40;;;13.80;99.90;;;;;;4974627;28;20452;-79
2022/07/02 00:44:22;;;;;;;1.07;0.97;;;13.70;99.90;;;;;;4974323;28;20464;-79
2022/07/02 00:46:49;;;;;;;0.60;0.60;;;13.70;99.90;;;;;;4976687;28;20457;-79
2022/07/02 00:49:17;;;;;;;0.40;0.40;;;13.70;99.90;;;;;;4978309;28;20456;-79
2022/07/02 00:51:45;;;;;;;0.40;0.30;;;13.70;99.90;;;;;;4978266;28;21000;-79
2022/07/02 00:54:12;;;;;;;0.70;0.50;;;13.70;99.90;;;;;;4978103;28;21008;-79
2022/07/02 00:56:39;;;;;;;0.43;0.43;;;13.70;99.90;;;;;;4978396;28;20465;-79
2022/07/02 00:59:06;;;;;;;0.50;0.50;;;13.70;99.90;;;;;;4978400;28;20456;-79
2022/07/02 01:01:32;;;;;;;1.03;0.40;;;13.70;99.90;;;;;;4978388;28;20460;-79
2022/07/02 01:04:02;;;;;;;0.30;0.30;;;13.70;99.90;;;;;;4978325;28;20492;-79
2022/07/02 01:06:33;;;;;;;1.27;0.50;;;13.70;99.90;;;;;;4978442;28;20473;-79
2022/07/02 01:11:46;;;;;;;0.50;0.40;;;13.70;99.90;;;;;;4978148;28;20776;-79
2022/07/02 01:14:13;;;;;;;0.40;0.40;;;13.80;99.90;;;;;;4978067;28;20485;-79
2022/07/02 01:16:40;;;;;;;0.50;0.50;;;13.80;99.90;;;;;;4977960;28;20828;-79
2022/07/02 01:19:07;;;;;;;0.60;0.50;;;13.80;99.90;;;;;;4978056;28;20472;-79
2022/07/02 01:21:34;;;;;;;0.50;0.40;;;13.80;99.90;;;;;;4978016;28;20457;-79
2022/07/02 01:24:02;;;;;;;0.50;0.50;;;13.80;99.90;;;;;;4977967;28;20449;-79
2022/07/02 01:26:29;;;;;;;0.80;0.60;;;13.80;99.90;;;;;;4977863;28;20473;-79
2022/07/02 01:28:56;;;;;;;0.50;0.50;;;13.80;99.90;;;;;;4977858;28;20453;-79
2022/07/02 01:31:23;;;;;;;0.30;0.30;;;13.80;99.90;;;;;;4977853;28;20453;-79
2022/07/02 01:33:50;;;;;;;0.60;0.50;;;13.80;99.90;;;;;;4977692;28;20567;-79
2022/07/02 01:36:16;;;;;;;0.50;0.50;;;13.80;99.90;;;;;;4977409;28;20999;-79
2022/07/02 01:38:43;;;;;;;1.87;0.80;;;13.80;99.90;;;;;;4977967;28;20441;-79
2022/07/02 01:44:01;;;;;;;1.17;0.60;;;13.70;99.90;;;;;;4962771;28;20537;-79
2022/07/02 01:46:28;;;;;;;0.60;0.50;;;13.70;99.90;;;;;;4977696;28;20469;-79
2022/07/02 01:48:54;;;;;;;1.60;0.90;;;13.70;99.90;;;;;;4977537;28;20449;-79
2022/07/02 01:51:21;;;;;;;0.87;0.53;;;13.70;99.90;;;;;;4977161;28;20448;-79
2022/07/02 01:53:48;;;;;;;1.33;0.50;;;13.70;99.90;;;;;;4977587;28;20485;-79
2022/07/02 01:56:16;;;;;;;0.50;0.40;;;13.60;99.90;;;;;;4977040;28;21019;-79
2022/07/02 01:58:42;;;;;;;0.40;0.40;;;13.70;99.90;;;;;;4976511;28;20452;-79
2022/07/02 02:01:10;;;;;;;0.60;0.50;;;13.60;99.90;;;;;;4977509;28;20460;-79
2022/07/02 02:03:37;;;;;;;0.77;0.40;;;13.60;99.90;;;;;;4977269;28;20480;-79
2022/07/02 02:06:04;;;;;;;0.40;0.40;;;13.60;99.90;;;;;;4976812;28;20473;-79
2022/07/02 02:08:31;;;;;;;0.60;0.50;;;13.60;99.90;;;;;;4977005;28;20488;-79
2022/07/02 02:10:58;;;;;;;0.40;0.40;;;13.60;99.90;;;;;;4977155;28;20448;-80
2022/07/02 02:13:26;;;;;;;0.60;0.40;;;13.50;99.90;;;;;;4977046;28;20496;-79
2022/07/02 02:15:53;;;;;;;0.40;0.40;;;13.50;99.90;;;;;;4976986;28;20492;-80
2022/07/02 02:18:20;;;;;;;0.40;0.37;;;13.50;99.90;;;;;;4977024;28;20453;-79
2022/07/02 02:20:46;;;;;;;0.40;0.30;;;13.50;99.90;;;;;;4977226;28;20449;-79
2022/07/02 02:23:13;;;;;;;0.90;0.40;;;13.40;99.90;;;;;;4976646;28;20449;-80
2022/07/02 02:25:40;;;;;;;0.40;0.40;;;13.40;99.90;;;;;;4976822;28;20477;-79
2022/07/02 02:28:06;;;;;;;0.87;0.50;;;13.40;99.90;;;;;;4977074;28;20460;-80
2022/07/02 02:30:34;;;;;;;0.40;0.40;;;13.40;99.90;;;;;;4976859;28;20430;-80
2022/07/02 02:33:01;;;;;;;0.73;0.40;;;13.30;99.90;;;;;;4976635;28;20462;-80
2022/07/02 02:35:28;;;;;;;0.40;0.40;;;13.30;99.90;;;;;;4976572;28;20493;-80
2022/07/02 02:37:55;;;;;;;0.97;0.30;;;13.30;99.90;;;;;;4976684;28;20445;-80
2022/07/02 02:40:22;;;;;;;0.60;0.50;;;13.30;99.90;;;;;;4976304;28;20449;-80
2022/07/02 02:42:49;;;;;;;1.40;0.47;;;13.30;99.90;;;;;;4976276;28;20452;-79
2022/07/02 02:45:15;;;;;;;0.50;0.40;;;13.30;99.90;;;;;;4976666;28;20453;-79
2022/07/02 02:47:43;;;;;;;0.40;0.40;;;13.20;99.90;;;;;;4976489;28;20461;-79
2022/07/02 02:50:10;;;;;;;1.00;0.50;;;13.30;99.90;;;;;;4976411;28;20457;-79
2022/07/02 02:52:37;;;;;;;0.40;0.40;;;13.30;99.90;;;;;;4976101;28;20453;-79
2022/07/02 02:55:04;;;;;;;2.30;0.50;;;13.30;99.90;;;;;;4976283;28;20485;-79
2022/07/02 02:57:31;;;;;;;0.60;0.43;;;13.30;99.90;;;;;;4975924;28;20864;-79
2022/07/02 02:59:58;;;;;;;0.30;0.30;;;13.20;99.90;;;;;;4976488;28;20450;-79
2022/07/02 03:02:24;;;;;;;0.30;0.30;;;13.20;99.90;;;;;;4975889;28;20960;-79
2022/07/02 03:04:53;;;;;;;0.80;0.80;;;13.20;99.90;;;;;;4976114;28;20449;-79
2022/07/02 03:07:19;;;;;;;0.30;0.30;;;13.20;99.90;;;;;;4976066;28;20879;-79
2022/07/02 03:09:46;;;;;;;0.60;0.40;;;13.20;99.90;;;;;;4975654;28;20489;-80
2022/07/02 03:12:13;;;;;;;0.40;0.30;;;13.20;99.90;;;;;;4976022;28;20452;-79
2022/07/02 03:14:39;;;;;;;0.30;0.30;;;13.10;99.90;;;;;;4976303;28;20870;-79
2022/07/02 03:17:06;;;;;;;0.40;0.40;;;13.10;99.90;;;;;;4975862;28;20469;-80
2022/07/02 03:19:33;;;;;;;0.30;0.30;;;13.10;99.90;;;;;;4975885;28;20449;-80
2022/07/02 03:22:01;;;;;;;0.50;0.50;;;13.10;99.90;;;;;;4975854;28;20892;-80
2022/07/02 03:24:28;;;;;;;0.40;0.40;;;13.10;99.90;;;;;;4976021;28;20452;-79
2022/07/02 03:26:54;;;;;;;0.60;0.40;;;13.10;99.90;;;;;;4975645;28;20476;-79
2022/07/02 03:29:21;;;;;;;0.40;0.40;;;13.00;99.90;;;;;;4975669;28;20452;-79
2022/07/02 03:31:48;;;;;;;0.40;0.40;;;13.00;99.90;;;;;;4975663;28;20465;-79
2022/07/02 03:34:15;;;;;;;0.90;0.70;;;13.00;99.90;;;;;;4975233;28;20485;-79
2022/07/02 03:36:41;;;;;;;1.07;0.50;;;13.00;99.90;;;;;;4975519;28;20560;-80
2022/07/02 03:39:10;;;;;;;0.40;0.30;;;13.00;99.90;;;;;;4975491;28;20449;-79
2022/07/02 03:41:36;;;;;;;0.50;0.40;;;13.00;99.90;;;;;;4975172;28;20784;-79
2022/07/02 03:44:03;;;;;;;0.50;0.40;;;13.00;99.90;;;;;;4975115;28;20845;-80
2022/07/02 03:46:30;;;;;;;0.40;0.30;;;13.10;99.90;;;;;;4975320;28;20469;-80
2022/07/02 03:48:56;;;;;;;0.50;0.50;;;13.10;99.90;;;;;;4975499;28;20825;-80
2022/07/02 03:51:23;;;;;;;0.43;0.43;;;13.10;99.90;;;;;;4975334;28;20449;-80
2022/07/02 03:53:50;;;;;;;1.00;0.40;;;13.20;99.90;;;;;;4975413;28;20449;-79
2022/07/02 03:56:18;;;;;;;0.40;0.40;;;13.20;99.90;;;;;;4974839;28;20978;-79
2022/07/02 03:58:45;;;;;;;0.50;0.50;;;13.20;99.90;;;;;;4974884;28;20456;-79
2022/07/02 04:01:11;;;;;;;0.50;0.40;;;13.30;99.90;;;;;;4975140;28;20450;-79
2022/07/02 04:03:39;;;;;;;0.40;0.30;;;13.30;99.90;;;;;;4975108;28;20801;-79
2022/07/02 04:06:06;;;;;;;1.00;0.50;;;13.40;99.90;;;;;;4974691;28;20473;-80
2022/07/02 04:08:33;;;;;;;0.30;0.30;;;13.40;99.90;;;;;;4974804;28;20487;-80
2022/07/02 04:10:59;;;;;;;0.43;0.43;;;13.40;99.90;;;;;;4975004;28;20434;-80
2022/07/02 04:13:28;;;;;;;5.50;1.27;;;13.50;99.90;;;;;;4975005;28;20787;-80
2022/07/02 04:15:55;;;;;;;0.40;0.33;;;13.50;99.90;;;;;;4974547;28;20491;-80
2022/07/02 04:18:22;;;;;;;0.57;0.30;;;13.50;99.90;;;;;;4975267;28;20456;-79
2022/07/02 04:20:49;;;;;;;0.50;0.47;;;13.60;99.90;;;;;;4974440;28;20461;-80
2022/07/02 04:23:15;;;;;;;0.47;0.47;;;13.60;99.90;;;;;;4974545;28;20445;-80
2022/07/02 04:25:42;;;;;;;0.40;0.40;;;13.70;99.90;;;;;;4974384;28;21012;-79
2022/07/02 04:28:10;;;;;;;0.60;0.40;;;13.70;99.90;;;;;;4974713;28;20453;-80
2022/07/02 04:30:38;;;;;;;0.40;0.40;;;13.70;99.90;;;;;;4974747;28;20861;-80
2022/07/02 04:33:05;;;;;;;1.47;0.87;;;13.70;99.90;;;;;;4974701;28;20445;-80
2022/07/02 04:35:32;;;;;;;0.40;0.30;;;13.70;99.90;;;;;;4974525;28;20481;-80
2022/07/02 04:37:58;;;;;;;0.50;0.30;;;13.70;99.90;;;;;;4974365;28;20918;-80
2022/07/02 04:40:25;;;;;;;0.60;0.60;;;13.70;99.90;;;;;;4974844;28;20457;-80
2022/07/02 04:42:52;;;;;;;0.40;0.40;;;13.70;99.90;;;;;;4974614;28;20453;-79
2022/07/02 04:45:19;;;;;;;0.40;0.40;;;13.80;99.90;;;;;;4974510;28;20449;-79
2022/07/02 04:47:47;;;;;;;0.40;0.40;;;13.80;99.90;;;;;;4974599;28;20456;-80
2022/07/02 04:50:14;;;;;;;0.43;0.40;;;13.80;99.90;;;;;;4974530;28;20453;-80
2022/07/02 04:52:40;;;;;;;0.50;0.40;;;13.80;99.90;;;;;;4975078;28;20449;-80
2022/07/02 04:55:08;;;;;;;1.03;0.83;;;13.80;99.90;;;;;;4974162;28;20487;-79
2022/07/02 04:57:34;;;;;;;1.27;0.60;;;13.90;99.90;;;;;;4974359;28;20480;-79
2022/07/02 05:00:01;;;;;;;0.70;0.70;;;13.90;99.90;;;;;;4974479;28;20820;-79
2022/07/02 05:02:28;;;;;;;1.33;0.40;;;14.00;99.90;;;;;;4974439;28;20460;-79
2022/07/02 05:04:57;;;;;;;0.40;0.40;;;14.00;99.90;;;;;;4974388;28;20445;-79
2022/07/02 05:07:23;;;;;;;0.30;0.30;;;14.10;99.90;;;;;;4973994;28;21012;-79
2022/07/02 05:09:50;;;;;;;1.10;0.40;;;14.20;99.90;;;;;;4973883;28;21004;-79
2022/07/02 05:12:17;;;;;;;0.70;0.50;;;14.20;99.90;;;;;;4974350;28;20457;-79
2022/07/02 05:14:43;;;;;;;0.40;0.40;;;14.30;99.90;;;;;;4974267;28;20481;-80
2022/07/02 05:17:10;;;;;;;0.50;0.40;;;14.30;99.90;;;;;;4973890;28;20985;-79
2022/07/02 05:19:37;;;;;;;0.40;0.30;;;14.40;99.90;;;;;;4974158;28;20462;-79
2022/07/02 05:22:05;;;;;;;0.50;0.50;;;14.50;99.90;;;;;;4973940;28;20945;-79
2022/07/02 05:24:32;;;;;;;1.10;0.60;;;14.50;99.90;;;;;;4974206;28;20457;-79
2022/07/02 05:26:58;;;;;;;0.50;0.43;;;14.60;99.90;;;;;;4974127;28;20476;-79
2022/07/02 05:29:25;;;;;;;0.80;0.70;;;14.70;99.90;;;;;;4974571;28;20467;-79
2022/07/02 05:31:52;;;;;;;1.33;0.80;;;14.90;99.90;;;;;;4974176;28;20449;-79
2022/07/02 05:34:19;;;;;;;0.60;0.40;;;15.00;99.90;;;;;;4976487;28;20492;-79
2022/07/02 05:36:47;;;;;;;1.30;0.80;;;15.10;99.90;;;;;;4977470;28;20457;-79
2022/07/02 05:39:15;;;;;;;0.60;0.60;;;15.20;99.90;;;;;;4977748;28;20459;-79
2022/07/02 05:41:42;;;;;;;0.80;0.60;;;15.30;99.90;;;;;;4977372;28;20991;-79
2022/07/02 05:44:09;;;;;;;0.40;0.40;;;15.40;99.90;;;;;;4977632;28;20453;-79
2022/07/02 05:46:36;;;;;;;0.73;0.70;;;15.60;99.90;;;;;;4977243;28;20997;-79
2022/07/02 05:49:02;;;;;;;0.93;0.47;;;15.70;99.90;;;;;;4977553;28;20456;-79
2022/07/02 05:51:29;;;;;;;0.67;0.60;;;15.90;99.90;;;;;;4977202;28;20972;-79
2022/07/02 05:53:56;;;;;;;0.50;0.40;;;16.00;99.90;;;;;;4977484;28;20449;-79
2022/07/02 05:56:24;;;;;;;0.60;0.40;;;16.10;99.90;;;;;;4976964;28;20495;-79
2022/07/02 05:58:50;;;;;;;1.00;0.40;;;16.20;99.90;;;;;;4978190;28;20457;-79
2022/07/02 06:01:17;;;;;;;0.70;0.53;;;16.30;99.90;;;;;;4977369;28;20456;-79
2022/07/02 06:03:44;;;;;;;0.40;0.33;;;16.50;99.90;;;;;;4977010;28;20452;-79
2022/07/02 06:08:55;;;;;;;1.23;1.13;;;16.80;99.90;;;;;;4977132;28;20531;-79
2022/07/02 06:11:21;;;;;;;0.60;0.47;;;17.00;99.90;;;;;;4977205;28;20457;-79
2022/07/02 06:13:50;;;;;;;2.70;0.43;;;17.10;99.90;;;;;;4977124;28;20456;-79
2022/07/02 06:16:16;;;;;;;0.80;0.40;;;17.30;99.90;;;;;;4976632;28;20850;-79
2022/07/02 06:18:43;;;;;;;0.50;0.40;;;17.40;99.90;;;;;;4977030;28;20449;-79
2022/07/02 06:21:10;;;;;;;0.40;0.40;;;17.70;99.90;;;;;;4976961;28;20454;-79
2022/07/02 06:23:36;;;;;;;0.40;0.40;;;17.90;99.90;;;;;;4976959;28;20453;-79
2022/07/02 06:26:03;;;;;;;0.60;0.40;;;18.30;99.90;;;;;;4976833;28;20472;-79
2022/07/02 06:28:30;;;;;;;0.40;0.30;;;18.60;99.90;;;;;;4976537;28;20452;-79
2022/07/02 06:30:58;;;;;;;0.57;0.57;;;19.00;99.90;;;;;;4977077;28;20445;-79
2022/07/02 06:33:25;;;;;;;0.50;0.40;;;19.40;99.90;;;;;;4977049;28;20819;-79
2022/07/02 06:35:51;;;;;;;0.50;0.50;;;20.00;99.90;;;;;;4976580;28;20590;-79
2022/07/02 06:38:18;;;;;;;0.40;0.40;;;20.40;99.90;;;;;;4976739;28;20453;-79
2022/07/02 06:40:45;;;;;;;0.40;0.40;;;20.50;99.90;;;;;;4976618;28;20456;-79
2022/07/02 06:43:11;;;;;;;0.40;0.30;;;20.70;99.90;;;;;;4976619;28;20456;-79
2022/07/02 06:45:38;;;;;;;0.67;0.40;;;20.80;99.90;;;;;;4976184;28;20465;-80
2022/07/02 06:48:06;;;;;;;0.40;0.40;;;20.60;99.90;;;;;;4976115;28;20964;-80
2022/07/02 06:50:33;;;;;;;0.50;0.40;;;20.60;99.90;;;;;;4976779;28;20449;-80
2022/07/02 06:53:00;;;;;;;0.43;0.40;;;20.60;99.90;;;;;;4976406;28;20463;-80
2022/07/02 06:55:27;;;;;;;0.90;0.43;;;20.70;99.90;;;;;;4976480;28;20221;-79
2022/07/02 06:57:53;;;;;;;0.60;0.40;;;21.00;99.90;;;;;;4976101;28;20464;-80
2022/07/02 07:00:21;;;;;;;0.53;0.43;;;20.90;99.90;;;;;;4975980;28;20944;-80
2022/07/02 07:02:48;;;;;;;0.70;0.70;;;20.90;99.90;;;;;;4976539;28;20500;-80
2022/07/02 07:05:16;;;;;;;0.60;0.60;;;20.90;99.90;;;;;;4976362;28;20445;-80
2022/07/02 07:07:43;;;;;;;3.40;0.40;;;20.80;99.90;;;;;;4975847;28;20448;-80
2022/07/02 07:10:10;;;;;;;0.60;0.40;;;20.70;99.90;;;;;;4975597;28;20480;-80
2022/07/02 07:12:37;;;;;;;0.40;0.40;;;20.60;99.90;;;;;;4976016;28;20445;-80
2022/07/02 07:15:06;;;;;;;1.17;0.60;;;20.50;99.90;;;;;;4975931;28;20489;-80
2022/07/02 07:17:33;;;;;;;0.83;0.40;;;20.50;99.90;;;;;;4975883;28;20472;-80
2022/07/02 07:20:00;;;;;;;0.40;0.40;;;20.60;99.90;;;;;;4975598;28;20969;-80
2022/07/02 07:22:28;;;;;;;0.40;0.40;;;20.70;99.90;;;;;;4976059;28;20456;-80
2022/07/02 07:24:55;;;;;;;0.87;0.40;;;20.80;99.90;;;;;;4975537;28;20811;-81
2022/07/02 07:27:21;;;;;;;0.40;0.40;;;20.70;99.90;;;;;;4975716;28;20479;-80
2022/07/02 07:29:48;;;;;;;0.83;0.50;;;20.60;99.90;;;;;;4975706;28;20449;-80
2022/07/02 07:32:15;;;;;;;1.33;0.50;;;20.50;99.90;;;;;;4975530;28;20825;-80
2022/07/02 07:34:42;;;;;;;0.40;0.30;;;20.60;99.90;;;;;;4975607;28;20448;-80
2022/07/02 07:37:08;;;;;;;0.50;0.40;;;20.70;99.90;;;;;;4975137;28;20996;-80
2022/07/02 07:39:36;;;;;;;0.50;0.40;;;20.90;99.90;;;;;;4975221;28;20945;-80
2022/07/02 07:42:03;;;;;;;0.40;0.40;;;21.10;99.90;;;;;;4975493;28;20449;-80
2022/07/02 07:44:31;;;;;;;0.43;0.40;;;21.30;99.90;;;;;;4975112;28;20971;-80
2022/07/02 07:46:58;;;;;;;0.37;0.30;;;21.50;99.90;;;;;;4975374;28;20512;-81
2022/07/02 07:49:25;;;;;;;0.40;0.40;;;21.70;99.90;;;;;;4975359;28;20444;-81
2022/07/02 07:51:52;;;;;;;0.30;0.30;;;22.10;99.90;;;;;;4975285;28;20452;-80
2022/07/02 07:54:18;;;;;;;0.40;0.40;;;22.20;99.90;;;;;;4975316;28;20452;-80
2022/07/02 07:56:47;;;;;;;0.40;0.30;;;22.40;99.90;;;;;;4974459;28;20495;-80
2022/07/02 07:59:13;;;;;;;0.40;0.30;;;22.80;99.90;;;;;;4975228;28;20480;-80
2022/07/02 08:01:40;;;;;;;0.40;0.30;;;22.90;99.90;;;;;;4975176;28;20460;-80
2022/07/02 08:04:07;;;;;;;0.83;0.40;;;22.90;99.90;;;;;;4975406;28;20239;-80
2022/07/02 08:06:33;;;;;;;0.40;0.40;;;23.10;99.90;;;;;;4974734;28;20999;-80
2022/07/02 08:09:00;;;;;;;0.40;0.40;;;23.30;99.90;;;;;;4974808;28;20241;-80
2022/07/02 08:11:27;;;;;;;0.30;0.30;;;23.50;99.90;;;;;;4974754;28;20185;-80
2022/07/02 08:13:55;;;;;;;0.40;0.40;;;23.30;99.90;;;;;;4974979;28;20209;-80
2022/07/02 08:16:23;;;;;;;0.47;0.40;;;23.30;99.90;;;;;;4974496;28;20589;-80
2022/07/02 08:18:50;;;;;;;0.40;0.40;;;23.30;99.90;;;;;;4975168;28;20216;-80
2022/07/02 08:21:17;;;;;;;0.38;0.38;;;23.20;99.90;;;;;;4975124;28;20209;-80
2022/07/02 08:23:43;;;;;;;0.60;0.60;;;23.20;99.90;;;;;;4974847;28;20205;-80
2022/07/02 08:26:10;;;;;;;0.40;0.35;;;23.10;99.90;;;;;;4974486;28;20229;-80
2022/07/02 08:28:37;;;;;;;0.50;0.40;;;23.00;99.90;;;;;;4974669;28;20602;-80
2022/07/02 08:31:05;;;;;;;0.40;0.40;;;23.00;99.90;;;;;;4974758;28;20209;-80
2022/07/02 08:33:32;;;;;;;0.40;0.40;;;22.90;99.90;;;;;;4974360;28;20581;-81
2022/07/02 08:35:59;;;;;;;0.40;0.40;;;23.20;99.90;;;;;;4974767;28;20226;-80
2022/07/02 08:38:26;;;;;;;0.43;0.35;;;23.40;99.90;;;;;;4974659;28;20205;-81
2022/07/02 08:40:52;;;;;;;0.68;0.40;;;23.40;99.90;;;;;;4974616;28;20209;-80
2022/07/02 08:43:23;;;;;;;0.40;0.30;;;23.70;99.90;;;;;;4974440;28;20189;-81
2022/07/02 08:45:53;;;;;;;0.40;0.40;;;23.70;99.90;;;;;;4974549;28;20240;-80
2022/07/02 08:48:23;;;;;;;0.43;0.40;;;23.60;99.90;;;;;;4974598;28;20209;-79
2022/07/02 08:50:51;;;;;;;0.50;0.30;;;23.60;99.90;;;;;;4974292;28;20725;-81
2022/07/02 08:53:19;;;;;;;0.40;0.40;;;23.60;99.90;;;;;;4974542;28;20212;-80
2022/07/02 08:55:46;;;;;;;0.70;0.60;;;23.60;99.90;;;;;;4974365;28;20276;-80
2022/07/02 08:58:15;;;;;;;0.40;0.40;;;23.70;99.90;;;;;;4974460;28;20201;-80
2022/07/02 09:00:43;;;;;;;0.30;0.30;;;23.90;99.90;;;;;;4974443;28;20209;-80
2022/07/02 09:03:11;;;;;;;0.40;0.35;;;24.20;99.90;;;;;;4974427;28;20209;-80
2022/07/02 09:05:42;;;;;;;0.47;0.47;;;24.30;99.90;;;;;;4974499;28;20221;-80
2022/07/02 09:08:10;;;;;;;0.40;0.30;;;24.40;99.90;;;;;;4976968;28;20197;-81
2022/07/02 09:10:39;;;;;;;0.35;0.30;;;24.50;99.90;;;;;;4977925;28;20229;-80
2022/07/02 09:13:07;;;;;;;0.40;0.40;;;24.40;99.90;;;;;;4978242;28;20212;-80
2022/07/02 09:15:35;;;;;;;3.45;0.40;;;24.50;99.80;;;;;;4977756;28;20208;-80
2022/07/02 09:18:02;;;;;;;0.30;0.30;;;24.40;99.90;;;;;;4978137;28;20205;-80
2022/07/02 09:20:29;;;;;;;0.40;0.40;;;24.30;99.90;;;;;;4978095;28;20206;-80
2022/07/02 09:22:57;;;;;;;0.57;0.40;;;24.10;99.90;;;;;;4978071;28;20210;-81
2022/07/02 09:25:26;;;;;;;0.30;0.30;;;23.90;99.90;;;;;;4977958;28;20209;-80
2022/07/02 09:27:58;;;;;;;0.40;0.30;;;23.80;99.90;;;;;;4977666;28;20210;-80
2022/07/02 09:30:26;;;;;;;0.40;0.40;;;23.70;99.90;;;;;;4977974;28;20190;-78
2022/07/02 09:33:28;;;;;;;0.43;0.43;;;23.70;99.90;;;;;;4977912;28;20186;-80
2022/07/02 09:35:39;;;;;;;0.40;0.30;;;23.60;99.70;;;;;;4977234;28;20657;-79
2022/07/02 09:38:10;;;;;;;0.40;0.40;;;23.50;99.90;;;;;;4977790;28;20205;-79
2022/07/02 09:40:37;;;;;;;0.40;0.40;;;23.40;99.90;;;;;;4977810;28;20209;-79
2022/07/02 09:43:04;;;;;;;0.30;0.30;;;23.60;99.90;;;;;;4977716;28;20211;-79
2022/07/02 09:45:31;;;;;;;1.53;0.50;;;23.60;99.90;;;;;;4977292;28;20583;-79
2022/07/02 09:48:03;;;;;;;0.40;0.40;;;23.80;99.90;;;;;;4977870;28;20217;-79
2022/07/02 09:50:30;;;;;;;1.03;0.40;;;24.00;99.90;;;;;;4977629;28;20200;-79
2022/07/02 09:52:59;;;;;;;0.93;0.50;;;24.00;99.90;;;;;;4977859;28;20186;-79
2022/07/02 09:55:28;;;;;;;0.45;0.45;;;24.10;99.90;;;;;;4977405;28;20209;-79
2022/07/02 09:57:56;;;;;;;0.60;0.40;;;24.10;99.90;;;;;;4977356;28;20217;-79
2022/07/02 10:00:26;;;;;;;0.40;0.40;;;24.20;99.90;;;;;;4977895;28;20252;-79
2022/07/02 10:02:54;;;;;;;0.77;0.60;;;24.10;97.90;;;;;;4977150;28;20229;-79
2022/07/02 10:05:25;;;;;;;0.30;0.30;;;24.00;98.10;;;;;;4977324;28;20233;-80
2022/07/02 10:07:53;;;;;;;0.50;0.50;;;23.80;97.60;;;;;;4976983;28;20182;-79
2022/07/02 10:10:28;;;;;;;0.43;0.40;;;23.80;96.10;;;;;;4976752;28;20241;-79
2022/07/02 10:12:57;;;;;;;1.00;0.50;;;23.80;96.40;;;;;;4976886;28;20220;-80
2022/07/02 10:15:25;;;;;;;0.40;0.30;;;23.80;96.10;;;;;;4977226;28;20255;-79
2022/07/02 10:17:56;;;;;;;0.40;0.40;;;23.80;96.10;;;;;;4977202;28;20892;-79
2022/07/02 10:20:24;;;;;;;0.60;0.40;;;23.80;95.40;;;;;;4976087;28;20645;-80
2022/07/02 10:22:51;;;;;;;0.37;0.37;;;23.80;96.70;;;;;;4976675;28;20587;-79
2022/07/02 10:25:19;;;;;;;0.93;0.40;;;23.80;96.30;;;;;;4976548;28;20572;-79
2022/07/02 10:27:47;;;;;;;0.40;0.40;;;23.90;96.40;;;;;;4976954;28;20264;-79
2022/07/02 10:30:16;;;;;;;0.40;0.40;;;24.10;95.90;;;;;;4976865;28;20208;-79
2022/07/02 10:32:53;;;;;;;0.40;0.40;;;24.30;95.70;;;;;;4976809;28;20260;-79
2022/07/02 10:35:23;;;;;;;0.40;0.40;;;24.30;95.80;;;;;;4976676;28;20221;-80
2022/07/02 10:37:57;;;;;;;0.40;0.40;;;24.40;92.70;;;;;;4977097;28;20232;-79
2022/07/02 10:40:24;;;;;;;0.77;0.40;;;24.50;93.50;;;;;;4976696;28;20599;-79
2022/07/02 10:42:53;;;;;;;0.40;0.40;;;24.40;94.40;;;;;;4976579;28;20236;-80
2022/07/02 10:45:23;;;;;;;0.40;0.37;;;24.40;94.30;;;;;;4976542;28;20202;-79
2022/07/02 10:47:54;;;;;;;0.35;0.30;;;24.30;94.00;;;;;;4976595;28;20217;-79
2022/07/02 10:50:26;;;;;;;0.40;0.40;;;24.30;93.90;;;;;;4976474;28;20209;-79
2022/07/02 10:52:54;;;;;;;0.40;0.40;;;24.30;93.80;;;;;;4976487;28;20217;-79
2022/07/02 10:55:28;;;;;;;0.40;0.40;;;24.30;93.00;;;;;;4976302;28;20275;-79
2022/07/02 10:57:57;;;;;;;0.30;0.30;;;24.50;93.00;;;;;;4976037;28;20245;-80
2022/07/02 11:00:30;;;;;;;0.40;0.40;;;24.60;92.30;;;;;;4976005;28;20689;-79
2022/07/02 11:02:58;;;;;;;0.40;0.38;;;24.90;91.10;;;;;;4976291;28;20558;-79
2022/07/02 11:05:25;;;;;;;0.40;0.40;;;25.20;91.10;;;;;;4976145;28;20243;-79
2022/07/02 11:07:53;;;;;;;0.40;0.40;;;25.70;90.10;;;;;;4976155;28;20260;-79
2022/07/02 11:10:28;;;;;;;0.40;0.40;;;25.70;88.30;;;;;;4975924;28;20240;-79
2022/07/02 11:13:00;;;;;;;0.40;0.35;;;25.80;90.00;;;;;;4975813;28;20232;-79
2022/07/02 11:15:36;;;;;;;0.40;0.30;;;25.90;88.20;;;;;;4976690;28;20539;-80
2022/07/02 11:18:06;;;;;;;0.40;0.32;;;25.80;87.80;;;;;;4976734;28;20209;-79
2022/07/02 11:20:35;;;;;;;0.47;0.32;;;25.60;87.30;;;;;;4975959;28;20209;-80
2022/07/02 11:23:04;;;;;;;0.35;0.30;;;25.40;89.60;;;;;;4975569;28;20573;-79
2022/07/02 11:25:31;;;;;;;0.40;0.40;;;25.10;85.70;;;;;;4975776;28;20205;-79
2022/07/02 11:27:59;;;;;;;0.40;0.40;;;24.80;87.60;;;;;;4975768;28;20240;-79
2022/07/02 11:30:28;;;;;;;0.30;0.30;;;24.70;90.30;;;;;;4974785;28;20644;-79
2022/07/02 11:32:56;;;;;;;0.55;0.50;;;24.70;88.30;;;;;;4975432;28;20232;-79
2022/07/02 11:35:23;;;;;;;0.47;0.45;;;24.60;87.40;;;;;;4975514;28;20225;-79
2022/07/02 11:37:56;;;;;;;0.40;0.40;;;24.60;87.30;;;;;;4975567;28;20652;-79
2022/07/02 11:40:24;;;;;;;0.40;0.40;;;24.50;89.40;;;;;;4975644;28;20189;-79
2022/07/02 11:42:50;;;;;;;0.40;0.40;;;24.30;84.40;;;;;;4975550;28;20207;-79
2022/07/02 11:45:17;;;;;;;0.40;0.35;;;24.10;84.50;;;;;;4975636;28;20205;-79
2022/07/02 11:47:46;;;;;;;0.75;0.75;;;24.10;85.10;;;;;;4975213;28;20201;-79
2022/07/02 11:50:14;;;;;;;0.77;0.43;;;24.20;86.00;;;;;;4975072;28;20213;-79
2022/07/02 11:52:42;;;;;;;0.40;0.40;;;24.10;84.90;;;;;;4975064;28;20715;-79
2022/07/02 11:55:16;;;;;;;3.07;1.17;;;24.10;85.30;;;;;;4975288;28;20228;-79
2022/07/02 11:57:44;;;;;;;0.40;0.40;;;24.20;83.50;;;;;;4974979;28;20217;-79
2022/07/02 12:00:12;;;;;;;0.40;0.40;;;24.00;85.10;;;;;;4975236;28;20208;-79
2022/07/02 12:02:40;;;;;;;1.33;0.50;;;24.00;87.20;;;;;;4974896;28;20252;-80
2022/07/02 12:05:19;;;;;;;0.40;0.40;;;24.00;82.50;;;;;;4974844;28;20215;-79
2022/07/02 12:07:47;;;;;;;0.40;0.40;;;24.10;84.00;;;;;;4975176;28;20342;-79
2022/07/02 12:10:15;;;;;;;0.60;0.37;;;24.10;83.30;;;;;;4974889;28;20241;-78
2022/07/02 12:12:42;;;;;;;0.43;0.43;;;24.10;82.90;;;;;;4975060;28;20205;-79
2022/07/02 12:15:10;;;;;;;3.47;0.38;;;24.00;85.50;;;;;;4975284;28;20216;-79
2022/07/02 12:17:46;;;;;;;0.40;0.40;;;24.00;83.00;;;;;;4974776;28;20229;-80
2022/07/02 12:20:13;;;;;;;0.40;0.40;;;24.10;84.30;;;;;;4974650;28;20193;-79
2022/07/02 12:22:41;;;;;;;0.50;0.40;;;24.00;80.70;;;;;;4974856;28;20205;-79
2022/07/02 12:25:08;;;;;;;0.40;0.40;;;23.90;80.70;;;;;;4974761;28;20216;-79
2022/07/02 12:27:36;;;;;;;0.50;0.30;;;23.90;80.70;;;;;;4974411;28;20228;-80
2022/07/02 12:30:11;;;;;;;0.80;0.50;;;23.70;81.90;;;;;;4975280;28;20455;-80
2022/07/02 12:32:39;;;;;;;0.40;0.40;;;23.60;82.00;;;;;;4974840;28;20551;-80
2022/07/02 12:35:08;;;;;;;0.40;0.40;;;23.50;82.70;;;;;;4974732;28;20640;-80
2022/07/02 12:37:36;;;;;;;0.40;0.40;;;23.60;83.40;;;;;;4974551;28;20236;-80
2022/07/02 12:40:08;;;;;;;0.40;0.40;;;23.60;83.20;;;;;;4974310;28;20464;-79
2022/07/02 12:42:45;;;;;;;0.40;0.40;;;23.70;81.80;;;;;;4974051;28;20605;-79
2022/07/02 12:45:22;;;;;;;0.50;0.40;;;23.60;82.20;;;;;;4974678;28;20460;-79
2022/07/02 12:47:57;;;;;;;0.40;0.40;;;23.50;83.00;;;;;;4974562;28;20939;-80
2022/07/02 12:50:25;;;;;;;0.40;0.40;;;23.30;84.60;;;;;;4974268;28;20491;-79
2022/07/02 12:52:55;;;;;;;0.40;0.40;;;23.30;85.30;;;;;;4974556;28;20205;-79
2022/07/02 12:55:25;;;;;;;0.47;0.40;;;23.30;85.00;;;;;;4974114;28;20983;-79
2022/07/02 12:57:53;;;;;;;0.60;0.40;;;23.40;85.50;;;;;;4974446;28;20475;-79
2022/07/02 13:00:20;;;;;;;0.40;0.40;;;23.40;85.60;;;;;;4974492;28;20459;-79